Time;durP1;ratioP1;P1;durP2;ratioP2;P2;SDS_P1;SDS_P2;PMS_P1;PMS_P2;Temp;Humidity;BMP_temperature;BMP_pressure;BME280_temperature;BME280_humidity;BME280_pressure;Samples;Min_cycle;Max_cycle;Signal;HPM_P1;HPM_P2
2024/01/10 00:01:04;;;;;;;10.30;4.97;;;;;;;;;;5051090;28;20099;-71
2024/01/10 00:03:45;;;;;;;10.77;4.85;;;;;;;;;;5048051;28;20059;-70
2024/01/10 00:06:11;;;;;;;11.38;5.50;;;;;;;;;;5048677;28;20045;-71
2024/01/10 00:08:39;;;;;;;8.85;4.97;;;;;;;;;;5046734;28;20061;-73
2024/01/10 00:11:06;;;;;;;12.02;5.80;;;;;;;;;;5046272;28;20405;-73
2024/01/10 00:13:33;;;;;;;8.23;4.70;;;;;;;;;;5051574;28;20063;-73
2024/01/10 00:15:59;;;;;;;9.63;5.78;;;;;;;;;;5050570;28;20552;-71
2024/01/10 00:18:28;;;;;;;10.77;5.00;;;;;;;;;;5050425;28;20061;-72
2024/01/10 00:20:54;;;;;;;8.25;4.47;;;;;;;;;;5048350;28;20052;-73
2024/01/10 00:23:23;;;;;;;12.98;4.85;;;;;;;;;;5047303;28;20053;-72
2024/01/10 00:25:50;;;;;;;10.80;5.10;;;;;;;;;;5032782;28;20049;-73
2024/01/10 00:28:19;;;;;;;11.68;5.50;;;;;;;;;;5048359;28;20056;-74
2024/01/10 00:30:47;;;;;;;14.90;4.90;;;;;;;;;;5043628;28;20045;-72
2024/01/10 00:33:14;;;;;;;10.10;4.43;;;;;;;;;;5051615;28;20053;-72
2024/01/10 00:35:40;;;;;;;10.10;4.40;;;;;;;;;;5044937;28;20627;-72
2024/01/10 00:38:08;;;;;;;7.63;4.63;;;;;;;;;;5047324;28;20191;-74
2024/01/10 00:40:34;;;;;;;11.80;4.97;;;;;;;;;;5050765;28;20040;-72
2024/01/10 00:43:02;;;;;;;12.18;4.85;;;;;;;;;;5049170;28;20097;-74
2024/01/10 00:45:28;;;;;;;7.90;4.60;;;;;;;;;;5047697;28;20049;-71
2024/01/10 00:47:54;;;;;;;6.35;3.90;;;;;;;;;;5048429;28;20049;-72
2024/01/10 00:50:22;;;;;;;15.38;4.75;;;;;;;;;;5049160;28;20531;-72
2024/01/10 00:52:48;;;;;;;10.45;4.40;;;;;;;;;;5048835;28;20052;-73
2024/01/10 00:55:16;;;;;;;8.45;4.15;;;;;;;;;;5044309;28;20412;-73
2024/01/10 00:57:43;;;;;;;9.00;4.18;;;;;;;;;;5047199;28;20041;-73
2024/01/10 01:00:11;;;;;;;10.68;4.68;;;;;;;;;;5045791;28;20088;-70
2024/01/10 01:02:41;;;;;;;8.07;4.18;;;;;;;;;;5050107;28;20057;-74
2024/01/10 01:05:07;;;;;;;7.20;4.00;;;;;;;;;;5046514;28;20115;-72
2024/01/10 01:07:34;;;;;;;9.85;4.20;;;;;;;;;;5063781;28;20407;-72
2024/01/10 01:10:02;;;;;;;7.60;4.15;;;;;;;;;;5049445;28;20049;-72
2024/01/10 01:12:35;;;;;;;15.23;4.15;;;;;;;;;;5045002;28;20441;-71
2024/01/10 01:15:02;;;;;;;8.85;4.00;;;;;;;;;;5047435;28;20124;-72
2024/01/10 01:17:29;;;;;;;6.97;3.88;;;;;;;;;;5048140;28;20048;-72
2024/01/10 01:19:55;;;;;;;7.22;4.30;;;;;;;;;;5042998;28;20090;-72
2024/01/10 01:22:31;;;;;;;11.52;4.05;;;;;;;;;;5043077;28;20420;-74
2024/01/10 01:24:57;;;;;;;6.78;4.20;;;;;;;;;;5062624;28;20478;-73
2024/01/10 01:27:24;;;;;;;10.00;3.75;;;;;;;;;;5047318;28;20479;-72
2024/01/10 01:29:50;;;;;;;8.95;4.43;;;;;;;;;;5037687;28;20045;-72
2024/01/10 01:32:19;;;;;;;8.13;3.90;;;;;;;;;;5048559;28;20464;-74
2024/01/10 01:34:44;;;;;;;8.35;3.95;;;;;;;;;;5076350;28;20109;-72
2024/01/10 01:37:12;;;;;;;8.73;4.20;;;;;;;;;;5046895;28;20052;-71
2024/01/10 01:39:39;;;;;;;8.02;3.63;;;;;;;;;;5052542;28;20505;-71
2024/01/10 01:42:06;;;;;;;8.98;3.70;;;;;;;;;;5049377;28;20056;-71
2024/01/10 01:44:32;;;;;;;9.52;4.07;;;;;;;;;;5046666;28;20190;-70
2024/01/10 01:47:01;;;;;;;8.63;4.03;;;;;;;;;;5049147;28;20071;-71
2024/01/10 01:49:28;;;;;;;9.32;4.20;;;;;;;;;;5049518;28;20131;-69
2024/01/10 01:51:55;;;;;;;11.13;4.65;;;;;;;;;;5043921;28;20140;-70
2024/01/10 01:54:23;;;;;;;18.20;5.40;;;;;;;;;;5044294;28;20842;-71
2024/01/10 01:56:51;;;;;;;12.20;5.32;;;;;;;;;;5050168;28;20594;-71
2024/01/10 01:59:17;;;;;;;9.68;5.00;;;;;;;;;;5045850;28;20124;-71
2024/01/10 02:01:44;;;;;;;18.55;6.32;;;;;;;;;;5046304;28;20053;-72
2024/01/10 02:04:11;;;;;;;14.48;5.63;;;;;;;;;;5048468;28;20136;-70
2024/01/10 02:06:37;;;;;;;14.73;5.75;;;;;;;;;;5047437;28;20676;-72
2024/01/10 02:09:04;;;;;;;12.80;5.70;;;;;;;;;;5046856;28;20045;-70
2024/01/10 02:11:31;;;;;;;13.55;5.53;;;;;;;;;;5054160;28;20533;-70
2024/01/10 02:13:57;;;;;;;14.68;5.75;;;;;;;;;;5062089;28;20044;-70
2024/01/10 02:16:24;;;;;;;14.63;5.60;;;;;;;;;;5047157;28;20041;-71
2024/01/10 02:18:50;;;;;;;13.85;5.43;;;;;;;;;;5059407;28;20060;-71
2024/01/10 02:21:21;;;;;;;11.45;5.07;;;;;;;;;;5047526;28;20413;-70
2024/01/10 02:23:47;;;;;;;11.82;5.35;;;;;;;;;;5050269;28;20048;-71
2024/01/10 02:26:15;;;;;;;13.60;5.15;;;;;;;;;;5041389;28;20064;-70
2024/01/10 02:28:43;;;;;;;11.32;5.13;;;;;;;;;;5042307;28;20079;-71
2024/01/10 02:31:10;;;;;;;11.15;4.90;;;;;;;;;;5044374;28;20402;-71
2024/01/10 02:33:37;;;;;;;10.48;4.72;;;;;;;;;;5047948;28;20133;-70
2024/01/10 02:36:04;;;;;;;14.65;4.88;;;;;;;;;;5045552;28;20049;-73
2024/01/10 02:38:31;;;;;;;15.13;5.18;;;;;;;;;;5044456;28;20091;-72
2024/01/10 02:40:57;;;;;;;14.73;5.05;;;;;;;;;;5046614;28;20037;-72
2024/01/10 02:43:23;;;;;;;12.15;5.35;;;;;;;;;;5048231;28;20044;-69
2024/01/10 02:45:49;;;;;;;10.27;4.72;;;;;;;;;;5043358;28;20803;-70
2024/01/10 02:48:15;;;;;;;12.45;4.60;;;;;;;;;;5045397;28;20060;-71
2024/01/10 02:50:43;;;;;;;12.10;4.30;;;;;;;;;;5048010;28;20064;-71
2024/01/10 02:53:09;;;;;;;11.48;4.03;;;;;;;;;;5045687;28;20386;-72
2024/01/10 02:55:35;;;;;;;15.95;4.20;;;;;;;;;;5044509;28;20489;-72
2024/01/10 02:58:02;;;;;;;10.73;4.18;;;;;;;;;;5044664;28;20053;-72
2024/01/10 03:00:28;;;;;;;8.55;4.00;;;;;;;;;;5040956;28;20029;-71
2024/01/10 03:02:53;;;;;;;10.25;4.00;;;;;;;;;;5054557;28;20057;-71
2024/01/10 03:05:20;;;;;;;11.18;4.18;;;;;;;;;;5045029;28;20602;-72
2024/01/10 03:07:46;;;;;;;11.20;4.63;;;;;;;;;;5044268;28;20053;-72
2024/01/10 03:10:13;;;;;;;12.50;4.60;;;;;;;;;;5059388;28;20049;-72
2024/01/10 03:12:40;;;;;;;12.77;4.78;;;;;;;;;;5044629;28;20102;-72
2024/01/10 03:15:10;;;;;;;9.60;4.05;;;;;;;;;;5045923;28;20063;-71
2024/01/10 03:17:36;;;;;;;13.50;4.80;;;;;;;;;;5045398;28;20057;-71
2024/01/10 03:20:04;;;;;;;11.88;3.72;;;;;;;;;;5045789;28;20090;-71
2024/01/10 03:22:33;;;;;;;6.38;3.63;;;;;;;;;;5044852;28;20543;-71
2024/01/10 03:25:00;;;;;;;6.35;3.55;;;;;;;;;;5045722;28;20055;-71
2024/01/10 03:27:26;;;;;;;10.38;3.45;;;;;;;;;;5036187;28;20054;-71
2024/01/10 03:29:52;;;;;;;6.35;2.83;;;;;;;;;;5043552;28;20045;-71
2024/01/10 03:32:19;;;;;;;6.72;2.95;;;;;;;;;;5045418;28;20053;-72
2024/01/10 03:34:51;;;;;;;6.93;3.10;;;;;;;;;;5076257;28;20051;-73
2024/01/10 03:37:18;;;;;;;9.85;2.80;;;;;;;;;;5043904;28;20186;-73
2024/01/10 03:39:46;;;;;;;4.63;2.50;;;;;;;;;;5042308;28;20048;-73
2024/01/10 03:42:12;;;;;;;4.82;2.30;;;;;;;;;;5049078;28;20045;-70
2024/01/10 03:44:40;;;;;;;5.45;2.60;;;;;;;;;;5045949;28;20048;-70
2024/01/10 03:47:06;;;;;;;4.18;2.45;;;;;;;;;;5041950;28;20366;-73
2024/01/10 03:49:33;;;;;;;5.00;2.30;;;;;;;;;;5046503;28;20049;-70
2024/01/10 03:51:59;;;;;;;6.72;2.42;;;;;;;;;;5046137;28;20191;-72
2024/01/10 03:54:28;;;;;;;4.05;2.30;;;;;;;;;;5043822;28;20053;-72
2024/01/10 03:56:55;;;;;;;4.05;2.20;;;;;;;;;;5041644;28;20049;-71
2024/01/10 03:59:24;;;;;;;6.82;2.25;;;;;;;;;;5062851;28;20061;-71
2024/01/10 04:01:51;;;;;;;6.22;2.45;;;;;;;;;;5042321;28;20045;-72
2024/01/10 04:04:17;;;;;;;5.38;2.20;;;;;;;;;;5044925;28;20056;-72
2024/01/10 04:06:44;;;;;;;6.53;2.20;;;;;;;;;;5045491;28;20412;-72
2024/01/10 04:09:12;;;;;;;6.30;2.13;;;;;;;;;;5044817;28;20501;-72
2024/01/10 04:11:39;;;;;;;6.22;2.03;;;;;;;;;;5042495;28;20075;-72
2024/01/10 04:14:06;;;;;;;3.95;1.90;;;;;;;;;;5042684;28;20128;-72
2024/01/10 04:16:33;;;;;;;6.78;1.90;;;;;;;;;;5046373;28;20581;-71
2024/01/10 04:19:00;;;;;;;6.10;2.10;;;;;;;;;;5038271;28;20052;-72
2024/01/10 04:21:26;;;;;;;5.88;2.22;;;;;;;;;;5045695;28;20140;-72
2024/01/10 04:23:52;;;;;;;3.70;2.00;;;;;;;;;;5043492;28;20057;-72
2024/01/10 04:26:18;;;;;;;4.82;2.38;;;;;;;;;;5044153;28;20136;-71
2024/01/10 04:28:44;;;;;;;4.50;1.90;;;;;;;;;;5041721;28;20106;-71
2024/01/10 04:31:13;;;;;;;3.70;2.00;;;;;;;;;;5050894;28;20084;-71
2024/01/10 04:33:40;;;;;;;3.40;1.83;;;;;;;;;;5049407;28;20509;-70
2024/01/10 04:36:06;;;;;;;3.08;2.00;;;;;;;;;;5048808;28;20052;-72
2024/01/10 04:38:32;;;;;;;4.97;2.08;;;;;;;;;;5048382;28;20045;-70
2024/01/10 04:40:59;;;;;;;10.25;2.35;;;;;;;;;;5045052;28;20052;-71
2024/01/10 04:43:25;;;;;;;5.35;2.25;;;;;;;;;;5078577;28;20116;-72
2024/01/10 04:45:52;;;;;;;6.40;2.80;;;;;;;;;;5047438;28;20516;-71
2024/01/10 04:48:19;;;;;;;7.00;3.00;;;;;;;;;;5047656;28;20048;-70
2024/01/10 04:50:45;;;;;;;5.97;2.78;;;;;;;;;;5046531;28;20049;-72
2024/01/10 04:53:11;;;;;;;7.40;2.83;;;;;;;;;;5047723;28;20068;-70
2024/01/10 04:55:39;;;;;;;9.27;3.17;;;;;;;;;;5015174;28;20051;-70
2024/01/10 04:58:05;;;;;;;6.38;3.42;;;;;;;;;;5047131;28;20528;-72
2024/01/10 05:00:32;;;;;;;7.65;3.53;;;;;;;;;;5046124;28;20497;-70
2024/01/10 05:02:59;;;;;;;7.50;3.35;;;;;;;;;;5062520;28;20057;-73
2024/01/10 05:05:25;;;;;;;8.00;3.85;;;;;;;;;;5048401;28;20044;-72
2024/01/10 05:07:52;;;;;;;10.68;4.40;;;;;;;;;;5048020;28;20049;-71
2024/01/10 05:10:18;;;;;;;7.82;4.25;;;;;;;;;;5042932;28;20101;-71
2024/01/10 05:12:46;;;;;;;8.90;4.50;;;;;;;;;;5044620;28;20061;-71
2024/01/10 05:15:12;;;;;;;7.13;4.05;;;;;;;;;;5049572;28;20098;-72
2024/01/10 05:17:38;;;;;;;8.95;4.10;;;;;;;;;;5043509;28;20068;-70
2024/01/10 05:20:05;;;;;;;9.35;4.30;;;;;;;;;;5043823;28;20498;-71
2024/01/10 05:22:32;;;;;;;9.68;4.57;;;;;;;;;;5051865;28;20410;-69
2024/01/10 05:25:00;;;;;;;11.07;4.15;;;;;;;;;;5047824;28;20461;-72
2024/01/10 05:27:27;;;;;;;8.38;4.22;;;;;;;;;;5046163;28;20051;-73
2024/01/10 05:29:54;;;;;;;10.85;4.07;;;;;;;;;;5047637;28;20451;-73
2024/01/10 05:32:21;;;;;;;7.95;4.65;;;;;;;;;;5049464;28;20045;-72
2024/01/10 05:34:49;;;;;;;11.90;4.78;;;;;;;;;;5048991;28;20073;-71
2024/01/10 05:37:17;;;;;;;9.60;4.70;;;;;;;;;;5047355;28;20053;-71
2024/01/10 05:39:43;;;;;;;7.57;4.95;;;;;;;;;;5061952;28;20049;-71
2024/01/10 05:42:09;;;;;;;12.73;4.80;;;;;;;;;;5044326;28;20497;-72
2024/01/10 05:44:36;;;;;;;7.82;4.60;;;;;;;;;;5046452;28;20060;-71
2024/01/10 05:47:03;;;;;;;15.25;4.90;;;;;;;;;;5046686;28;20048;-73
2024/01/10 05:49:29;;;;;;;14.85;5.15;;;;;;;;;;5045672;28;20068;-71
2024/01/10 05:51:55;;;;;;;8.55;5.00;;;;;;;;;;5049096;28;20056;-70
2024/01/10 05:54:22;;;;;;;8.05;4.53;;;;;;;;;;5045120;28;20122;-73
2024/01/10 05:56:50;;;;;;;11.23;4.72;;;;;;;;;;5048769;28;20053;-72
2024/01/10 05:59:16;;;;;;;14.07;4.80;;;;;;;;;;5045799;28;20554;-73
2024/01/10 06:01:43;;;;;;;7.95;4.45;;;;;;;;;;5049459;28;20086;-72
2024/01/10 06:04:10;;;;;;;6.85;4.30;;;;;;;;;;5052139;28;20064;-72
2024/01/10 06:06:37;;;;;;;11.52;5.10;;;;;;;;;;5048258;28;20060;-72
2024/01/10 06:09:03;;;;;;;8.80;4.70;;;;;;;;;;5046343;28;20075;-72
2024/01/10 06:11:31;;;;;;;11.05;4.47;;;;;;;;;;5045634;28;20053;-73
2024/01/10 06:13:57;;;;;;;9.70;4.32;;;;;;;;;;5048297;28;20099;-72
2024/01/10 06:16:24;;;;;;;10.50;4.60;;;;;;;;;;5064288;28;20431;-72
2024/01/10 06:19:33;;;;;;;10.25;4.38;;;;;;;;;;5047182;28;20474;-72
2024/01/10 06:23:13;;;;;;;11.77;4.38;;;;;;;;;;5051839;28;20091;-72
2024/01/10 06:26:53;;;;;;;8.75;4.20;;;;;;;;;;5049527;28;20064;-73
2024/01/10 06:30:35;;;;;;;11.10;4.13;;;;;;;;;;5045892;28;20056;-73
2024/01/10 06:34:14;;;;;;;6.97;3.97;;;;;;;;;;5043340;28;20132;-71
2024/01/10 06:37:54;;;;;;;10.25;4.45;;;;;;;;;;5043497;28;20532;-73
2024/01/10 06:41:36;;;;;;;8.65;4.15;;;;;;;;;;5042670;28;20123;-75
2024/01/10 06:45:17;;;;;;;9.18;4.20;;;;;;;;;;5044267;28;20090;-75
2024/01/10 06:48:57;;;;;;;10.15;4.10;;;;;;;;;;5044314;28;20044;-75
2024/01/10 06:52:39;;;;;;;9.82;4.18;;;;;;;;;;5037667;28;20048;-77
2024/01/10 06:56:19;;;;;;;6.72;4.35;;;;;;;;;;5045229;28;20049;-73
2024/01/10 06:59:59;;;;;;;7.05;3.97;;;;;;;;;;5046213;28;20390;-76
2024/01/10 07:03:45;;;;;;;12.23;3.55;;;;;;;;;;5045609;28;20072;-75
2024/01/10 07:07:25;;;;;;;8.48;3.50;;;;;;;;;;5042575;28;20051;-77
2024/01/10 07:11:05;;;;;;;7.93;3.92;;;;;;;;;;5045842;28;20531;-75
2024/01/10 07:14:46;;;;;;;7.55;3.88;;;;;;;;;;5042417;28;20080;-74
2024/01/10 07:18:26;;;;;;;7.20;3.60;;;;;;;;;;5039042;28;20424;-75
2024/01/10 07:22:09;;;;;;;7.85;3.88;;;;;;;;;;5047526;28;20148;-75
2024/01/10 07:25:48;;;;;;;10.05;4.57;;;;;;;;;;5045656;28;20099;-74
2024/01/10 07:29:28;;;;;;;10.93;3.97;;;;;;;;;;5049791;28;20053;-75
2024/01/10 07:33:08;;;;;;;9.00;4.20;;;;;;;;;;5047620;28;20044;-76
2024/01/10 07:36:50;;;;;;;12.07;4.25;;;;;;;;;;5044895;28;20049;-71
2024/01/10 07:40:31;;;;;;;10.07;4.43;;;;;;;;;;5045917;28;20092;-75
2024/01/10 07:43:31;;;;;;;7.35;3.85;;;;;;;;;;5039030;28;20159;-77
2024/01/10 07:46:39;;;;;;;8.40;4.20;;;;;;;;;;5049497;28;20138;-80
2024/01/10 07:50:26;;;;;;;12.23;4.28;;;;;;;;;;5039077;28;20685;-75
2024/01/10 07:54:03;;;;;;;9.93;4.15;;;;;;;;;;5043433;28;20070;-77
2024/01/10 07:57:44;;;;;;;16.73;5.40;;;;;;;;;;5042871;28;20043;-74
2024/01/10 08:00:46;;;;;;;15.85;5.07;;;;;;;;;;5045027;28;20091;-76
2024/01/10 08:03:13;;;;;;;13.40;4.70;;;;;;;;;;5049400;28;20483;-79
2024/01/10 08:05:39;;;;;;;14.15;5.07;;;;;;;;;;5051729;28;20515;-77
2024/01/10 08:08:06;;;;;;;13.52;5.00;;;;;;;;;;5053241;28;20052;-79
2024/01/10 08:10:32;;;;;;;14.30;5.00;;;;;;;;;;5048987;28;20045;-77
2024/01/10 08:12:59;;;;;;;15.60;5.18;;;;;;;;;;5046092;28;20063;-78
2024/01/10 08:15:26;;;;;;;10.02;4.93;;;;;;;;;;5047792;28;20123;-79
2024/01/10 08:17:53;;;;;;;17.92;5.00;;;;;;;;;;5056238;28;20106;-75
2024/01/10 08:20:22;;;;;;;16.17;5.60;;;;;;;;;;5050459;28;20044;-78
2024/01/10 08:22:49;;;;;;;13.00;6.32;;;;;;;;;;5058493;28;20045;-79
2024/01/10 08:25:18;;;;;;;23.90;9.18;;;;;;;;;;5055706;28;20132;-76
2024/01/10 08:27:45;;;;;;;17.02;6.25;;;;;;;;;;5047610;28;20048;-76
2024/01/10 08:30:13;;;;;;;17.95;6.82;;;;;;;;;;5054166;28;20049;-75
2024/01/10 08:32:40;;;;;;;12.93;5.65;;;;;;;;;;5055863;28;20412;-75
2024/01/10 08:35:09;;;;;;;16.52;6.30;;;;;;;;;;5048307;28;20455;-76
2024/01/10 08:37:35;;;;;;;19.02;5.93;;;;;;;;;;5048334;28;20079;-76
2024/01/10 08:40:06;;;;;;;15.57;5.68;;;;;;;;;;5047794;28;20779;-75
2024/01/10 08:42:34;;;;;;;13.32;5.45;;;;;;;;;;5069243;28;20124;-76
2024/01/10 08:45:01;;;;;;;21.50;4.90;;;;;;;;;;5052472;28;20041;-74
2024/01/10 08:47:31;;;;;;;26.38;5.53;;;;;;;;;;5061276;28;20135;-76
2024/01/10 08:49:58;;;;;;;18.23;5.38;;;;;;;;;;5046526;28;20452;-74
2024/01/10 08:52:25;;;;;;;15.93;5.10;;;;;;;;;;5048956;28;20120;-75
2024/01/10 08:54:51;;;;;;;18.55;4.90;;;;;;;;;;5056901;28;20659;-77
2024/01/10 08:57:19;;;;;;;15.82;5.38;;;;;;;;;;5051491;28;20060;-73
2024/01/10 08:59:46;;;;;;;16.35;5.63;;;;;;;;;;5049106;28;20079;-76
2024/01/10 09:02:14;;;;;;;12.52;5.65;;;;;;;;;;5061368;28;20063;-75
2024/01/10 09:04:40;;;;;;;11.90;4.60;;;;;;;;;;5071359;28;20060;-76
2024/01/10 09:07:11;;;;;;;10.90;4.35;;;;;;;;;;5052400;28;20060;-75
2024/01/10 09:09:37;;;;;;;9.95;4.32;;;;;;;;;;5053799;28;20496;-77
2024/01/10 09:12:04;;;;;;;8.27;3.80;;;;;;;;;;5052037;28;20064;-75
2024/01/10 09:14:32;;;;;;;9.00;4.28;;;;;;;;;;5049007;28;20128;-74
2024/01/10 09:17:02;;;;;;;16.73;4.57;;;;;;;;;;5047970;28;20057;-76
2024/01/10 09:19:30;;;;;;;9.27;4.88;;;;;;;;;;5050219;28;20079;-76
2024/01/10 09:21:57;;;;;;;7.93;3.58;;;;;;;;;;5051038;28;20057;-76
2024/01/10 09:24:25;;;;;;;11.27;4.07;;;;;;;;;;5048499;28;20052;-76
2024/01/10 09:26:54;;;;;;;12.57;4.50;;;;;;;;;;5048008;28;20490;-76
2024/01/10 09:29:21;;;;;;;12.48;4.18;;;;;;;;;;5046016;28;20053;-77
2024/01/10 09:31:49;;;;;;;9.35;4.43;;;;;;;;;;5048670;28;20057;-77
2024/01/10 09:34:20;;;;;;;28.30;4.82;;;;;;;;;;5049398;28;20080;-74
2024/01/10 09:36:47;;;;;;;17.92;4.90;;;;;;;;;;5047708;28;20061;-78
2024/01/10 09:39:16;;;;;;;12.25;4.93;;;;;;;;;;5047408;28;20057;-76
2024/01/10 09:41:48;;;;;;;11.05;4.85;;;;;;;;;;5043334;28;20091;-76
2024/01/10 09:44:17;;;;;;;14.30;4.93;;;;;;;;;;5046217;28;20057;-78
2024/01/10 09:46:50;;;;;;;19.88;5.47;;;;;;;;;;5046771;28;20052;-77
2024/01/10 09:49:17;;;;;;;14.00;5.85;;;;;;;;;;5049159;28;20063;-78
2024/01/10 09:51:48;;;;;;;12.70;4.30;;;;;;;;;;5046045;28;20409;-77
2024/01/10 09:54:15;;;;;;;13.10;5.38;;;;;;;;;;5047451;28;20041;-76
2024/01/10 09:56:43;;;;;;;10.10;4.03;;;;;;;;;;5043902;28;20063;-77
2024/01/10 09:59:10;;;;;;;9.82;4.20;;;;;;;;;;5044975;28;20154;-77
2024/01/10 10:01:39;;;;;;;10.18;3.83;;;;;;;;;;5048340;28;20045;-75
2024/01/10 10:04:09;;;;;;;12.48;3.95;;;;;;;;;;5044488;28;20048;-76
2024/01/10 10:06:35;;;;;;;12.80;3.92;;;;;;;;;;5048874;28;20272;-75
2024/01/10 10:09:01;;;;;;;9.15;3.63;;;;;;;;;;5048540;28;20864;-76
2024/01/10 10:11:27;;;;;;;7.95;3.97;;;;;;;;;;5051559;28;20133;-75
2024/01/10 10:13:54;;;;;;;11.15;3.92;;;;;;;;;;5048708;28;20048;-75
2024/01/10 10:16:28;;;;;;;12.20;4.13;;;;;;;;;;5049002;28;20065;-75
2024/01/10 10:18:57;;;;;;;10.90;4.38;;;;;;;;;;5053016;28;20049;-76
2024/01/10 10:21:28;;;;;;;12.13;4.32;;;;;;;;;;5045545;28;20060;-75
2024/01/10 10:24:03;;;;;;;16.15;4.50;;;;;;;;;;5052605;28;20059;-75
2024/01/10 10:26:34;;;;;;;8.95;4.43;;;;;;;;;;5051659;28;20475;-75
2024/01/10 10:29:02;;;;;;;10.65;4.93;;;;;;;;;;5048466;28;20390;-74
2024/01/10 10:31:31;;;;;;;11.10;4.53;;;;;;;;;;5047208;28;20477;-76
2024/01/10 10:34:01;;;;;;;8.73;4.40;;;;;;;;;;5043067;28;20421;-76
2024/01/10 10:36:31;;;;;;;12.95;4.45;;;;;;;;;;5049351;28;20061;-76
2024/01/10 10:39:01;;;;;;;9.32;4.38;;;;;;;;;;5046905;28;20149;-78
2024/01/10 10:41:30;;;;;;;15.63;5.63;;;;;;;;;;5047658;28;20068;-77
2024/01/10 10:43:57;;;;;;;11.02;4.95;;;;;;;;;;5051822;28;20052;-77
2024/01/10 10:46:27;;;;;;;11.07;4.72;;;;;;;;;;5051098;28;20110;-75
2024/01/10 10:48:54;;;;;;;11.45;4.93;;;;;;;;;;5053054;28;20230;-74
2024/01/10 10:51:39;;;;;;;15.20;6.63;;;;;;;;;;5046089;28;20102;-74
2024/01/10 10:54:13;;;;;;;24.25;8.27;;;;;;;;;;5037553;28;20145;-74
2024/01/10 10:56:42;;;;;;;22.38;7.40;;;;;;;;;;5045811;28;20045;-75
2024/01/10 10:59:09;;;;;;;14.55;6.95;;;;;;;;;;5048351;28;20071;-78
2024/01/10 11:01:36;;;;;;;16.00;7.05;;;;;;;;;;5048624;28;20064;-75
2024/01/10 11:04:03;;;;;;;13.05;6.20;;;;;;;;;;5047998;28;20056;-75
2024/01/10 11:06:30;;;;;;;19.60;7.72;;;;;;;;;;5051653;28;20485;-77
2024/01/10 11:09:45;;;;;;;13.48;5.78;;;;;;;;;;5072112;28;20055;-74
2024/01/10 11:13:40;;;;;;;9.48;4.97;;;;;;;;;;5049320;28;20080;-76
2024/01/10 11:17:00;;;;;;;11.32;4.72;;;;;;;;;;5051713;28;20094;-74
2024/01/10 11:20:22;;;;;;;13.98;5.10;;;;;;;;;;5052910;28;20048;-75
2024/01/10 11:24:06;;;;;;;7.22;4.15;;;;;;;;;;5045449;28;20040;-75
2024/01/10 11:27:54;;;;;;;9.10;5.07;;;;;;;;;;5050451;28;20045;-76
2024/01/10 11:31:35;;;;;;;8.32;4.68;;;;;;;;;;5043437;28;20056;-76
2024/01/10 11:35:18;;;;;;;9.65;4.35;;;;;;;;;;5045646;28;20409;-74
2024/01/10 11:38:44;;;;;;;6.43;4.00;;;;;;;;;;5051233;28;20755;-72
2024/01/10 11:42:24;;;;;;;18.48;5.10;;;;;;;;;;5052609;28;20475;-75
2024/01/10 11:45:33;;;;;;;12.27;4.97;;;;;;;;;;5048894;28;20044;-78
2024/01/10 11:49:11;;;;;;;11.82;5.30;;;;;;;;;;5050895;28;20101;-75
2024/01/10 11:52:52;;;;;;;11.13;5.38;;;;;;;;;;5048145;28;20052;-75
2024/01/10 11:56:32;;;;;;;11.25;5.18;;;;;;;;;;5050173;28;20157;-75
2024/01/10 12:00:14;;;;;;;11.77;5.82;;;;;;;;;;5051005;28;20080;-76
2024/01/10 12:03:54;;;;;;;16.20;5.18;;;;;;;;;;5052604;28;20148;-76
2024/01/10 12:07:35;;;;;;;18.70;5.43;;;;;;;;;;5056507;28;20103;-74
2024/01/10 12:11:15;;;;;;;11.10;4.80;;;;;;;;;;5049744;28;20044;-76
2024/01/10 12:14:55;;;;;;;6.90;4.40;;;;;;;;;;5043730;28;20045;-76
2024/01/10 12:18:36;;;;;;;8.35;4.82;;;;;;;;;;5050393;28;20132;-75
2024/01/10 12:22:18;;;;;;;6.97;4.28;;;;;;;;;;5043011;28;20049;-76
2024/01/10 12:25:58;;;;;;;12.20;5.22;;;;;;;;;;5049064;28;20049;-76
2024/01/10 12:29:39;;;;;;;20.77;7.53;;;;;;;;;;5041820;28;20041;-76
2024/01/10 12:33:21;;;;;;;22.45;8.80;;;;;;;;;;5050324;28;20045;-76
2024/01/10 12:37:03;;;;;;;16.65;8.77;;;;;;;;;;5050813;28;20053;-76
2024/01/10 12:40:44;;;;;;;15.40;7.88;;;;;;;;;;5053156;28;20454;-76
2024/01/10 12:44:34;;;;;;;15.90;8.27;;;;;;;;;;5051958;28;20047;-78
2024/01/10 12:48:17;;;;;;;13.05;7.88;;;;;;;;;;5052748;28;20493;-75
2024/01/10 12:51:55;;;;;;;18.15;7.93;;;;;;;;;;5049889;28;20049;-76
2024/01/10 12:55:37;;;;;;;14.25;7.53;;;;;;;;;;5040973;28;20202;-78
2024/01/10 12:59:19;;;;;;;11.93;7.38;;;;;;;;;;5044061;28;20037;-76
2024/01/10 13:02:59;;;;;;;18.40;6.95;;;;;;;;;;5045505;28;20111;-76
2024/01/10 13:06:40;;;;;;;11.63;6.10;;;;;;;;;;5050979;28;20053;-76
2024/01/10 13:10:20;;;;;;;9.38;5.80;;;;;;;;;;5047797;28;20044;-77
2024/01/10 13:14:01;;;;;;;14.10;5.60;;;;;;;;;;5046530;28;20114;-76
2024/01/10 13:17:46;;;;;;;10.20;5.85;;;;;;;;;;5046565;28;20104;-75
2024/01/10 13:21:26;;;;;;;13.43;6.30;;;;;;;;;;5051038;28;20055;-76
2024/01/10 13:25:08;;;;;;;12.32;6.63;;;;;;;;;;5060173;28;20076;-73
2024/01/10 13:28:48;;;;;;;17.13;6.85;;;;;;;;;;5047879;28;20053;-74
2024/01/10 13:32:29;;;;;;;11.60;6.15;;;;;;;;;;5040947;28;20053;-76
2024/01/10 13:36:10;;;;;;;14.15;6.07;;;;;;;;;;5046954;28;20187;-76
2024/01/10 13:39:56;;;;;;;8.18;3.97;;;;;;;;;;5047994;28;20079;-76
2024/01/10 13:43:36;;;;;;;7.93;2.80;;;;;;;;;;5042959;28;20052;-75
2024/01/10 13:47:16;;;;;;;4.20;2.40;;;;;;;;;;5047062;28;20140;-76
2024/01/10 13:50:57;;;;;;;7.15;2.53;;;;;;;;;;5057401;28;20059;-75
2024/01/10 13:54:38;;;;;;;5.35;2.53;;;;;;;;;;5048716;28;20110;-74
2024/01/10 13:58:18;;;;;;;3.85;2.47;;;;;;;;;;5049457;28;20226;-73
2024/01/10 14:02:00;;;;;;;7.47;2.72;;;;;;;;;;5057026;28;20110;-76
2024/01/10 14:05:40;;;;;;;6.65;2.72;;;;;;;;;;5050873;28;20119;-75
2024/01/10 14:09:20;;;;;;;7.15;2.50;;;;;;;;;;5049904;28;20048;-75
2024/01/10 14:13:01;;;;;;;3.88;2.58;;;;;;;;;;5049557;28;20045;-75
2024/01/10 14:16:41;;;;;;;4.18;2.40;;;;;;;;;;5048332;28;20159;-78
2024/01/10 14:20:21;;;;;;;7.20;2.70;;;;;;;;;;5052747;28;20093;-77
2024/01/10 14:24:02;;;;;;;10.10;3.50;;;;;;;;;;5054634;28;20485;-76
2024/01/10 14:27:42;;;;;;;6.80;3.20;;;;;;;;;;5053540;28;20037;-76
2024/01/10 14:31:23;;;;;;;5.72;3.10;;;;;;;;;;5048725;28;20055;-77
2024/01/10 14:35:04;;;;;;;7.68;3.60;;;;;;;;;;5053707;28;20040;-79
2024/01/10 14:38:43;;;;;;;7.70;3.50;;;;;;;;;;5050089;28;20056;-77
2024/01/10 14:42:24;;;;;;;7.32;3.80;;;;;;;;;;5054001;28;20064;-78
2024/01/10 14:46:07;;;;;;;7.93;3.22;;;;;;;;;;5051639;28;20048;-75
2024/01/10 14:49:46;;;;;;;9.10;3.63;;;;;;;;;;5051918;28;20068;-78
2024/01/10 14:53:27;;;;;;;9.80;3.88;;;;;;;;;;5049337;28;20065;-78
2024/01/10 14:57:07;;;;;;;6.50;4.15;;;;;;;;;;5042395;28;20049;-78
2024/01/10 15:00:47;;;;;;;8.57;4.47;;;;;;;;;;5044545;28;20071;-77
2024/01/10 15:04:30;;;;;;;14.43;4.80;;;;;;;;;;5041505;28;20107;-76
2024/01/10 15:08:11;;;;;;;6.95;4.30;;;;;;;;;;5047304;28;20045;-76
2024/01/10 15:11:53;;;;;;;8.38;4.43;;;;;;;;;;5043867;28;20136;-74
2024/01/10 15:15:33;;;;;;;6.93;3.55;;;;;;;;;;5043299;28;20447;-75
2024/01/10 15:19:14;;;;;;;8.55;4.13;;;;;;;;;;5044274;28;20449;-76
2024/01/10 15:22:54;;;;;;;8.18;4.40;;;;;;;;;;5045165;28;20049;-78
2024/01/10 15:26:35;;;;;;;10.07;4.57;;;;;;;;;;5050980;28;20372;-77
2024/01/10 15:30:15;;;;;;;8.30;4.80;;;;;;;;;;5046529;28;20068;-80
2024/01/10 15:33:55;;;;;;;9.43;5.05;;;;;;;;;;5045713;28;20080;-78
2024/01/10 15:37:35;;;;;;;10.13;4.50;;;;;;;;;;5048194;28;20516;-78
2024/01/10 15:41:18;;;;;;;10.15;4.70;;;;;;;;;;5045545;28;20409;-77
2024/01/10 15:45:00;;;;;;;9.63;4.75;;;;;;;;;;5045262;28;20429;-79
2024/01/10 15:48:40;;;;;;;7.30;4.43;;;;;;;;;;5045698;28;20125;-79
2024/01/10 15:52:26;;;;;;;10.50;4.85;;;;;;;;;;5043466;28;20148;-74
2024/01/10 15:56:02;;;;;;;8.98;4.43;;;;;;;;;;5039406;28;20068;-76
2024/01/10 15:59:46;;;;;;;9.02;4.63;;;;;;;;;;5043204;28;20045;-76
2024/01/10 16:03:27;;;;;;;12.73;5.03;;;;;;;;;;5041994;28;20230;-75
2024/01/10 16:07:09;;;;;;;9.10;4.30;;;;;;;;;;5044346;28;20432;-75
2024/01/10 16:10:49;;;;;;;8.00;4.50;;;;;;;;;;5049088;28;20138;-77
2024/01/10 16:14:30;;;;;;;12.70;4.25;;;;;;;;;;5046709;28;20479;-77
2024/01/10 16:18:14;;;;;;;7.72;3.83;;;;;;;;;;5040194;28;20044;-75
2024/01/10 16:21:54;;;;;;;12.95;4.18;;;;;;;;;;5045439;28;20404;-75
2024/01/10 16:25:35;;;;;;;8.05;4.43;;;;;;;;;;5043647;28;20056;-72
2024/01/10 16:29:17;;;;;;;16.67;4.75;;;;;;;;;;5050978;28;20045;-77
2024/01/10 16:32:56;;;;;;;11.48;4.25;;;;;;;;;;5054187;28;20060;-74
2024/01/10 16:36:36;;;;;;;9.55;4.40;;;;;;;;;;5050800;28;20043;-78
2024/01/10 16:40:19;;;;;;;7.93;4.70;;;;;;;;;;5044614;28;20048;-77
2024/01/10 16:43:57;;;;;;;10.57;4.45;;;;;;;;;;5057391;28;20055;-82
2024/01/10 16:47:37;;;;;;;8.50;4.65;;;;;;;;;;5050509;28;20116;-76
2024/01/10 16:51:17;;;;;;;8.07;4.13;;;;;;;;;;5053106;28;20174;-76
2024/01/10 16:54:58;;;;;;;6.15;3.97;;;;;;;;;;5045873;28;20063;-75
2024/01/10 16:58:38;;;;;;;10.02;4.72;;;;;;;;;;5043312;28;20060;-78
2024/01/10 17:02:19;;;;;;;7.68;4.22;;;;;;;;;;5047359;28;20431;-74
2024/01/10 17:05:59;;;;;;;6.95;4.07;;;;;;;;;;5044013;28;20503;-73
2024/01/10 17:09:39;;;;;;;4.72;3.50;;;;;;;;;;5040634;28;20105;-76